createdAt,value
2023-04-12T00:25:17.436Z,9.3
2023-04-12T00:45:20.091Z,9.7
2023-04-12T01:05:22.904Z,9.7
2023-04-12T01:15:24.216Z,9.7
2023-04-12T01:25:26.245Z,9.6
2023-04-12T01:35:27.566Z,9.5
2023-04-12T01:45:29.329Z,9.4
2023-04-12T01:55:30.464Z,9.3
2023-04-12T02:05:31.729Z,9.2
2023-04-12T02:15:33.279Z,9.1
2023-04-12T02:55:39.270Z,8.7
2023-04-12T03:05:40.608Z,8.7
2023-04-12T03:35:44.175Z,8.4
2023-04-12T03:55:47.206Z,8.4
2023-04-12T04:25:52.513Z,8.4
2023-04-12T04:45:55.594Z,8.4
2023-04-12T04:55:57.145Z,8.4
2023-04-12T05:05:58.240Z,8.4
2023-04-12T05:15:59.504Z,8.3
2023-04-12T05:26:01.373Z,8.1
2023-04-12T05:36:02.807Z,7.9
2023-04-12T05:56:05.722Z,7.7
2023-04-12T06:06:07.281Z,7.6
2023-04-12T06:16:08.451Z,7.5
2023-04-12T06:46:14.043Z,7.7
2023-04-12T08:16:27.002Z,8.5
2023-04-12T08:26:28.736Z,8.6
2023-04-12T08:36:30.354Z,8.5
2023-04-12T08:46:31.507Z,8.6
2023-04-12T09:06:34.315Z,9
2023-04-12T09:16:35.996Z,9
2023-04-12T09:26:37.844Z,9
2023-04-12T09:36:38.905Z,9.1
2023-04-12T09:46:40.346Z,9.2
2023-04-12T09:56:42.330Z,9.4
2023-04-12T10:06:43.400Z,9.6
2023-04-12T10:16:45.119Z,9.5
2023-04-12T10:26:46.250Z,9.6
2023-04-12T10:36:47.429Z,9.9
2023-04-12T10:46:49.310Z,9.8
2023-04-12T10:56:50.979Z,9.7
2023-04-12T11:06:53.137Z,9.6
2023-04-12T11:16:53.959Z,9.3
2023-04-12T11:36:56.484Z,9.7
2023-04-12T11:56:59.616Z,9.1
2023-04-12T12:07:01.610Z,8.8
2023-04-12T12:17:02.913Z,8.9
2023-04-12T12:27:03.990Z,9.2
2023-04-12T12:37:05.492Z,10.1
2023-04-12T12:47:13.796Z,10.4
2023-04-12T12:57:08.731Z,10.6
2023-04-12T13:07:10.371Z,11.4
2023-04-12T13:17:11.834Z,11.3
2023-04-12T13:27:15.112Z,11.8
2023-04-12T13:37:14.941Z,12.3
2023-04-12T13:47:15.996Z,12.8
2023-04-12T13:57:17.565Z,12.7
2023-04-12T14:07:18.975Z,12.7
2023-04-12T14:17:20.257Z,12
2023-04-12T14:27:21.630Z,11.2
2023-04-12T14:37:23.146Z,9.2
2023-04-12T14:47:24.768Z,8.6
2023-04-12T15:07:27.410Z,8
2023-04-12T15:17:28.752Z,8.2
2023-04-12T15:27:30.278Z,8.4
2023-04-12T15:37:31.547Z,8.5
2023-04-12T15:47:32.769Z,8.4
2023-04-12T15:57:34.735Z,8.4
2023-04-12T16:07:36.042Z,8.5
2023-04-12T16:17:37.537Z,10.1
2023-04-12T16:27:39.377Z,9.8
2023-04-12T16:37:40.726Z,9.5
2023-04-12T16:47:42.558Z,9
2023-04-12T16:57:43.608Z,8.9
2023-04-12T17:07:44.512Z,8.2
2023-04-12T17:17:45.860Z,7.1
2023-04-12T17:27:47.792Z,7.1
2023-04-12T17:37:49.206Z,7.1
2023-04-12T17:47:50.496Z,7.3
2023-04-12T17:57:51.597Z,7.4
2023-04-12T18:07:53.138Z,7.2
2023-04-12T18:17:54.354Z,7.1
2023-04-12T18:27:55.691Z,6.9
2023-04-12T18:37:57.738Z,6.8
2023-04-12T18:47:59.126Z,6.8
2023-04-12T18:58:00.741Z,6.7
2023-04-12T19:08:02.258Z,6.5
2023-04-12T19:18:03.383Z,6.5
2023-04-12T19:28:04.615Z,6.6
2023-04-12T19:38:05.869Z,6.5
2023-04-12T19:48:07.195Z,6.4
2023-04-12T19:58:08.348Z,6.4
2023-04-12T20:08:09.820Z,6.3
2023-04-12T20:18:10.901Z,6.4
2023-04-12T20:38:14.058Z,6.5
2023-04-12T20:48:15.309Z,6.7
2023-04-12T20:58:16.405Z,6.6
2023-04-12T21:00:54.758Z,6.6
2023-04-12T21:08:27.377Z,6.7
2023-04-12T21:18:29.050Z,6.7
2023-04-12T21:28:30.720Z,6.9
2023-04-12T21:38:32.524Z,7.1
2023-04-12T21:48:33.679Z,7
2023-04-12T21:58:35.630Z,7
2023-04-12T22:08:37.198Z,7
2023-04-12T22:18:38.920Z,7
2023-04-12T22:28:40.646Z,6.9
2023-04-12T22:38:41.772Z,7
2023-04-12T22:48:43.318Z,6.7
2023-04-12T22:58:44.481Z,6.6
2023-04-12T23:08:46.058Z,6.4
2023-04-12T23:18:48.057Z,6.3
2023-04-12T23:28:49.548Z,6.3
2023-04-12T23:38:50.810Z,6.2
2023-04-12T23:48:52.177Z,6.1
2023-04-12T23:58:53.783Z,6.2
